sensor_id;sensor_type;location;lat;lon;timestamp;P1;durP1;ratioP1;P2;durP2;ratioP2
66923;SDS011;53835;47.984;7.844;2022-09-21T00:01:56;4.13;;;2.07;;
66923;SDS011;53835;47.984;7.844;2022-09-21T00:04:23;2.50;;;1.90;;
66923;SDS011;53835;47.984;7.844;2022-09-21T00:06:50;5.57;;;2.03;;
66923;SDS011;53835;47.984;7.844;2022-09-21T00:09:17;3.50;;;2.30;;
66923;SDS011;53835;47.984;7.844;2022-09-21T00:11:45;2.83;;;1.80;;
66923;SDS011;53835;47.984;7.844;2022-09-21T00:14:12;2.43;;;2.10;;
66923;SDS011;53835;47.984;7.844;2022-09-21T00:16:40;2.47;;;1.80;;
66923;SDS011;53835;47.984;7.844;2022-09-21T00:19:08;3.50;;;2.00;;
66923;SDS011;53835;47.984;7.844;2022-09-21T00:21:36;2.67;;;1.97;;
66923;SDS011;53835;47.984;7.844;2022-09-21T00:24:04;1.93;;;1.67;;
66923;SDS011;53835;47.984;7.844;2022-09-21T00:26:32;3.00;;;2.23;;
66923;SDS011;53835;47.984;7.844;2022-09-21T00:29:00;2.97;;;1.90;;
66923;SDS011;53835;47.984;7.844;2022-09-21T00:31:28;3.93;;;1.87;;
66923;SDS011;53835;47.984;7.844;2022-09-21T00:33:56;3.33;;;2.00;;
66923;SDS011;53835;47.984;7.844;2022-09-21T00:36:25;3.03;;;1.83;;
66923;SDS011;53835;47.984;7.844;2022-09-21T00:38:57;3.80;;;2.13;;
66923;SDS011;53835;47.984;7.844;2022-09-21T00:41:28;3.37;;;1.77;;
66923;SDS011;53835;47.984;7.844;2022-09-21T00:44:18;3.80;;;2.00;;
66923;SDS011;53835;47.984;7.844;2022-09-21T00:46:36;3.77;;;2.10;;
66923;SDS011;53835;47.984;7.844;2022-09-21T00:49:04;3.33;;;2.20;;
66923;SDS011;53835;47.984;7.844;2022-09-21T00:51:32;2.13;;;1.90;;
66923;SDS011;53835;47.984;7.844;2022-09-21T00:54:00;3.20;;;1.90;;
66923;SDS011;53835;47.984;7.844;2022-09-21T00:56:28;4.03;;;2.40;;
66923;SDS011;53835;47.984;7.844;2022-09-21T00:58:56;3.50;;;1.93;;
66923;SDS011;53835;47.984;7.844;2022-09-21T01:01:23;3.23;;;2.03;;
66923;SDS011;53835;47.984;7.844;2022-09-21T01:03:51;2.73;;;2.10;;
66923;SDS011;53835;47.984;7.844;2022-09-21T01:06:21;3.53;;;1.90;;
66923;SDS011;53835;47.984;7.844;2022-09-21T01:08:49;2.10;;;1.90;;
66923;SDS011;53835;47.984;7.844;2022-09-21T01:11:22;1.90;;;1.80;;
66923;SDS011;53835;47.984;7.844;2022-09-21T01:16:44;6.30;;;2.07;;
66923;SDS011;53835;47.984;7.844;2022-09-21T01:22:09;1.90;;;1.80;;
66923;SDS011;53835;47.984;7.844;2022-09-21T01:29:27;2.83;;;1.83;;
66923;SDS011;53835;47.984;7.844;2022-09-21T01:32:04;4.43;;;2.13;;
66923;SDS011;53835;47.984;7.844;2022-09-21T01:34:33;2.10;;;1.90;;
66923;SDS011;53835;47.984;7.844;2022-09-21T01:37:00;2.90;;;1.83;;
66923;SDS011;53835;47.984;7.844;2022-09-21T01:39:28;2.57;;;1.90;;
66923;SDS011;53835;47.984;7.844;2022-09-21T01:41:56;3.50;;;2.07;;
66923;SDS011;53835;47.984;7.844;2022-09-21T01:44:26;2.73;;;1.80;;
66923;SDS011;53835;47.984;7.844;2022-09-21T01:46:53;2.47;;;2.10;;
66923;SDS011;53835;47.984;7.844;2022-09-21T01:49:23;3.03;;;1.87;;
66923;SDS011;53835;47.984;7.844;2022-09-21T01:51:51;4.17;;;2.00;;
66923;SDS011;53835;47.984;7.844;2022-09-21T01:54:24;5.27;;;1.93;;
66923;SDS011;53835;47.984;7.844;2022-09-21T01:57:00;3.37;;;2.13;;
66923;SDS011;53835;47.984;7.844;2022-09-21T01:59:45;5.67;;;2.43;;
66923;SDS011;53835;47.984;7.844;2022-09-21T02:02:15;4.00;;;2.10;;
66923;SDS011;53835;47.984;7.844;2022-09-21T02:04:42;5.73;;;1.80;;
66923;SDS011;53835;47.984;7.844;2022-09-21T02:07:09;3.20;;;1.83;;
66923;SDS011;53835;47.984;7.844;2022-09-21T02:09:36;4.70;;;2.30;;
66923;SDS011;53835;47.984;7.844;2022-09-21T02:12:04;5.43;;;2.10;;
66923;SDS011;53835;47.984;7.844;2022-09-21T02:14:31;3.20;;;1.90;;
66923;SDS011;53835;47.984;7.844;2022-09-21T02:22:14;3.40;;;2.00;;
66923;SDS011;53835;47.984;7.844;2022-09-21T02:24:45;2.10;;;1.90;;
66923;SDS011;53835;47.984;7.844;2022-09-21T02:27:25;5.10;;;2.27;;
66923;SDS011;53835;47.984;7.844;2022-09-21T02:29:52;3.17;;;2.10;;
66923;SDS011;53835;47.984;7.844;2022-09-21T02:34:56;4.37;;;2.00;;
66923;SDS011;53835;47.984;7.844;2022-09-21T02:37:24;2.33;;;2.00;;
66923;SDS011;53835;47.984;7.844;2022-09-21T02:42:31;2.23;;;1.80;;
66923;SDS011;53835;47.984;7.844;2022-09-21T02:45:07;3.17;;;2.30;;
66923;SDS011;53835;47.984;7.844;2022-09-21T02:47:41;5.03;;;2.07;;
66923;SDS011;53835;47.984;7.844;2022-09-21T02:50:08;2.20;;;2.00;;
66923;SDS011;53835;47.984;7.844;2022-09-21T02:52:35;3.93;;;2.30;;
66923;SDS011;53835;47.984;7.844;2022-09-21T02:55:05;2.93;;;2.00;;
66923;SDS011;53835;47.984;7.844;2022-09-21T02:57:34;3.97;;;2.17;;
66923;SDS011;53835;47.984;7.844;2022-09-21T03:00:03;3.70;;;2.20;;
66923;SDS011;53835;47.984;7.844;2022-09-21T03:02:35;3.07;;;2.30;;
66923;SDS011;53835;47.984;7.844;2022-09-21T03:05:02;2.53;;;2.00;;
66923;SDS011;53835;47.984;7.844;2022-09-21T03:07:30;3.67;;;2.10;;
66923;SDS011;53835;47.984;7.844;2022-09-21T03:09:57;5.03;;;2.17;;
66923;SDS011;53835;47.984;7.844;2022-09-21T03:12:25;4.03;;;1.97;;
66923;SDS011;53835;47.984;7.844;2022-09-21T03:14:52;5.17;;;2.10;;
66923;SDS011;53835;47.984;7.844;2022-09-21T03:17:21;2.97;;;1.93;;
66923;SDS011;53835;47.984;7.844;2022-09-21T03:19:48;2.50;;;2.00;;
66923;SDS011;53835;47.984;7.844;2022-09-21T03:22:15;2.20;;;2.00;;
66923;SDS011;53835;47.984;7.844;2022-09-21T03:24:43;5.10;;;2.10;;
66923;SDS011;53835;47.984;7.844;2022-09-21T03:27:13;3.60;;;2.10;;
66923;SDS011;53835;47.984;7.844;2022-09-21T03:29:41;3.67;;;2.17;;
66923;SDS011;53835;47.984;7.844;2022-09-21T03:32:08;3.37;;;2.30;;
66923;SDS011;53835;47.984;7.844;2022-09-21T03:34:36;3.00;;;2.17;;
66923;SDS011;53835;47.984;7.844;2022-09-21T03:37:03;3.77;;;2.20;;
66923;SDS011;53835;47.984;7.844;2022-09-21T03:39:31;3.50;;;2.17;;
66923;SDS011;53835;47.984;7.844;2022-09-21T03:41:58;4.27;;;2.30;;
66923;SDS011;53835;47.984;7.844;2022-09-21T03:44:26;2.77;;;2.40;;
66923;SDS011;53835;47.984;7.844;2022-09-21T03:46:53;3.53;;;2.27;;
66923;SDS011;53835;47.984;7.844;2022-09-21T03:49:20;3.40;;;2.47;;
66923;SDS011;53835;47.984;7.844;2022-09-21T03:51:47;3.17;;;2.27;;
66923;SDS011;53835;47.984;7.844;2022-09-21T03:54:15;3.13;;;2.30;;
66923;SDS011;53835;47.984;7.844;2022-09-21T03:56:42;3.50;;;2.23;;
66923;SDS011;53835;47.984;7.844;2022-09-21T03:59:10;4.03;;;2.60;;
66923;SDS011;53835;47.984;7.844;2022-09-21T04:01:37;2.80;;;2.50;;
66923;SDS011;53835;47.984;7.844;2022-09-21T04:04:04;4.20;;;2.60;;
66923;SDS011;53835;47.984;7.844;2022-09-21T04:06:31;4.83;;;2.47;;
66923;SDS011;53835;47.984;7.844;2022-09-21T04:08:59;6.13;;;2.40;;
66923;SDS011;53835;47.984;7.844;2022-09-21T04:11:28;3.37;;;2.57;;
66923;SDS011;53835;47.984;7.844;2022-09-21T04:13:57;3.33;;;2.43;;
66923;SDS011;53835;47.984;7.844;2022-09-21T04:16:25;3.17;;;2.80;;
66923;SDS011;53835;47.984;7.844;2022-09-21T04:18:52;4.37;;;2.67;;
66923;SDS011;53835;47.984;7.844;2022-09-21T04:21:20;2.70;;;2.40;;
66923;SDS011;53835;47.984;7.844;2022-09-21T04:23:48;2.90;;;2.40;;
66923;SDS011;53835;47.984;7.844;2022-09-21T04:28:50;2.67;;;2.47;;
66923;SDS011;53835;47.984;7.844;2022-09-21T04:31:18;4.37;;;2.50;;
66923;SDS011;53835;47.984;7.844;2022-09-21T04:33:48;4.23;;;2.83;;
66923;SDS011;53835;47.984;7.844;2022-09-21T04:36:16;3.13;;;2.40;;
66923;SDS011;53835;47.984;7.844;2022-09-21T04:38:44;4.93;;;2.90;;
66923;SDS011;53835;47.984;7.844;2022-09-21T04:41:11;4.63;;;2.70;;
66923;SDS011;53835;47.984;7.844;2022-09-21T04:43:42;3.97;;;2.70;;
66923;SDS011;53835;47.984;7.844;2022-09-21T04:46:12;3.93;;;2.90;;
66923;SDS011;53835;47.984;7.844;2022-09-21T04:48:39;3.83;;;2.90;;
66923;SDS011;53835;47.984;7.844;2022-09-21T04:51:06;5.00;;;2.80;;
66923;SDS011;53835;47.984;7.844;2022-09-21T04:53:34;3.63;;;2.80;;
66923;SDS011;53835;47.984;7.844;2022-09-21T04:56:03;4.97;;;2.83;;
66923;SDS011;53835;47.984;7.844;2022-09-21T04:58:30;4.77;;;2.80;;
66923;SDS011;53835;47.984;7.844;2022-09-21T05:00:58;5.97;;;2.70;;
66923;SDS011;53835;47.984;7.844;2022-09-21T05:03:25;4.70;;;2.70;;
66923;SDS011;53835;47.984;7.844;2022-09-21T05:05:53;4.40;;;3.17;;
66923;SDS011;53835;47.984;7.844;2022-09-21T05:08:22;5.27;;;3.07;;
66923;SDS011;53835;47.984;7.844;2022-09-21T05:11:09;3.47;;;2.80;;
66923;SDS011;53835;47.984;7.844;2022-09-21T05:13:38;4.00;;;2.77;;
66923;SDS011;53835;47.984;7.844;2022-09-21T05:16:06;5.53;;;2.80;;
66923;SDS011;53835;47.984;7.844;2022-09-21T05:18:34;3.47;;;2.90;;
66923;SDS011;53835;47.984;7.844;2022-09-21T05:21:01;5.57;;;3.00;;
66923;SDS011;53835;47.984;7.844;2022-09-21T05:23:30;6.33;;;3.23;;
66923;SDS011;53835;47.984;7.844;2022-09-21T05:25:58;5.30;;;3.13;;
66923;SDS011;53835;47.984;7.844;2022-09-21T05:28:25;5.83;;;2.80;;
66923;SDS011;53835;47.984;7.844;2022-09-21T05:31:36;4.40;;;2.87;;
66923;SDS011;53835;47.984;7.844;2022-09-21T05:33:25;4.50;;;3.00;;
66923;SDS011;53835;47.984;7.844;2022-09-21T05:35:57;6.80;;;3.40;;
66923;SDS011;53835;47.984;7.844;2022-09-21T05:38:22;7.73;;;3.20;;
66923;SDS011;53835;47.984;7.844;2022-09-21T05:40:49;6.20;;;3.30;;
66923;SDS011;53835;47.984;7.844;2022-09-21T05:43:17;5.43;;;3.67;;
66923;SDS011;53835;47.984;7.844;2022-09-21T05:45:45;6.67;;;3.00;;
66923;SDS011;53835;47.984;7.844;2022-09-21T05:48:17;7.27;;;3.00;;
66923;SDS011;53835;47.984;7.844;2022-09-21T05:50:47;5.17;;;3.33;;
66923;SDS011;53835;47.984;7.844;2022-09-21T05:53:18;6.53;;;3.43;;
66923;SDS011;53835;47.984;7.844;2022-09-21T05:55:59;8.60;;;3.37;;
66923;SDS011;53835;47.984;7.844;2022-09-21T05:58:41;6.23;;;3.03;;
66923;SDS011;53835;47.984;7.844;2022-09-21T06:01:14;5.97;;;3.03;;
66923;SDS011;53835;47.984;7.844;2022-09-21T06:03:39;7.70;;;3.50;;
66923;SDS011;53835;47.984;7.844;2022-09-21T06:06:07;6.80;;;2.90;;
66923;SDS011;53835;47.984;7.844;2022-09-21T06:08:35;6.27;;;3.10;;
66923;SDS011;53835;47.984;7.844;2022-09-21T06:11:03;6.00;;;3.50;;
66923;SDS011;53835;47.984;7.844;2022-09-21T06:13:30;5.93;;;3.40;;
66923;SDS011;53835;47.984;7.844;2022-09-21T06:16:00;10.20;;;3.50;;
66923;SDS011;53835;47.984;7.844;2022-09-21T06:18:26;4.83;;;3.27;;
66923;SDS011;53835;47.984;7.844;2022-09-21T06:20:53;4.70;;;3.30;;
66923;SDS011;53835;47.984;7.844;2022-09-21T06:23:21;5.43;;;3.10;;
66923;SDS011;53835;47.984;7.844;2022-09-21T06:25:51;5.33;;;2.80;;
66923;SDS011;53835;47.984;7.844;2022-09-21T06:28:19;6.20;;;3.30;;
66923;SDS011;53835;47.984;7.844;2022-09-21T06:30:54;6.07;;;3.10;;
66923;SDS011;53835;47.984;7.844;2022-09-21T06:33:18;5.10;;;2.87;;
66923;SDS011;53835;47.984;7.844;2022-09-21T06:35:52;9.30;;;3.70;;
66923;SDS011;53835;47.984;7.844;2022-09-21T06:38:19;11.57;;;3.60;;
66923;SDS011;53835;47.984;7.844;2022-09-21T06:40:47;8.37;;;3.67;;
66923;SDS011;53835;47.984;7.844;2022-09-21T06:43:14;6.53;;;3.73;;
66923;SDS011;53835;47.984;7.844;2022-09-21T06:45:42;4.87;;;3.40;;
66923;SDS011;53835;47.984;7.844;2022-09-21T06:48:09;9.57;;;3.70;;
66923;SDS011;53835;47.984;7.844;2022-09-21T06:50:36;6.83;;;3.90;;
66923;SDS011;53835;47.984;7.844;2022-09-21T06:53:04;6.50;;;3.10;;
66923;SDS011;53835;47.984;7.844;2022-09-21T06:55:31;6.03;;;3.43;;
66923;SDS011;53835;47.984;7.844;2022-09-21T06:58:00;6.70;;;4.00;;
66923;SDS011;53835;47.984;7.844;2022-09-21T07:00:28;6.17;;;3.90;;
66923;SDS011;53835;47.984;7.844;2022-09-21T07:02:56;6.57;;;4.13;;
66923;SDS011;53835;47.984;7.844;2022-09-21T07:05:23;8.53;;;4.10;;
66923;SDS011;53835;47.984;7.844;2022-09-21T07:07:55;6.87;;;3.97;;
66923;SDS011;53835;47.984;7.844;2022-09-21T07:10:20;6.60;;;4.00;;
66923;SDS011;53835;47.984;7.844;2022-09-21T07:12:47;4.47;;;3.50;;
66923;SDS011;53835;47.984;7.844;2022-09-21T07:15:16;8.83;;;3.73;;
66923;SDS011;53835;47.984;7.844;2022-09-21T07:17:47;10.13;;;4.03;;
66923;SDS011;53835;47.984;7.844;2022-09-21T07:20:14;6.87;;;3.70;;
66923;SDS011;53835;47.984;7.844;2022-09-21T07:22:41;8.60;;;3.80;;
66923;SDS011;53835;47.984;7.844;2022-09-21T07:25:09;7.20;;;4.10;;
66923;SDS011;53835;47.984;7.844;2022-09-21T07:27:36;7.03;;;3.90;;
66923;SDS011;53835;47.984;7.844;2022-09-21T07:30:04;7.10;;;4.23;;
66923;SDS011;53835;47.984;7.844;2022-09-21T07:32:31;5.67;;;3.70;;
66923;SDS011;53835;47.984;7.844;2022-09-21T07:34:58;8.13;;;3.80;;
66923;SDS011;53835;47.984;7.844;2022-09-21T07:37:26;4.67;;;3.60;;
66923;SDS011;53835;47.984;7.844;2022-09-21T07:39:53;7.13;;;3.70;;
66923;SDS011;53835;47.984;7.844;2022-09-21T07:42:21;5.67;;;3.67;;
66923;SDS011;53835;47.984;7.844;2022-09-21T07:44:49;6.37;;;4.10;;
66923;SDS011;53835;47.984;7.844;2022-09-21T07:47:17;7.30;;;3.90;;
66923;SDS011;53835;47.984;7.844;2022-09-21T07:49:45;6.30;;;3.80;;
66923;SDS011;53835;47.984;7.844;2022-09-21T07:52:12;6.50;;;4.00;;
66923;SDS011;53835;47.984;7.844;2022-09-21T07:54:41;9.03;;;4.53;;
66923;SDS011;53835;47.984;7.844;2022-09-21T07:57:08;7.67;;;3.80;;
66923;SDS011;53835;47.984;7.844;2022-09-21T07:59:53;6.77;;;3.87;;
66923;SDS011;53835;47.984;7.844;2022-09-21T08:02:22;8.17;;;4.03;;
66923;SDS011;53835;47.984;7.844;2022-09-21T08:04:50;6.73;;;4.03;;
66923;SDS011;53835;47.984;7.844;2022-09-21T08:07:17;6.00;;;4.00;;
66923;SDS011;53835;47.984;7.844;2022-09-21T08:09:44;9.27;;;4.00;;
66923;SDS011;53835;47.984;7.844;2022-09-21T08:12:13;6.20;;;3.80;;
66923;SDS011;53835;47.984;7.844;2022-09-21T08:14:43;11.30;;;4.13;;
66923;SDS011;53835;47.984;7.844;2022-09-21T08:17:10;7.43;;;4.20;;
66923;SDS011;53835;47.984;7.844;2022-09-21T08:19:38;8.57;;;3.93;;
66923;SDS011;53835;47.984;7.844;2022-09-21T08:22:05;11.40;;;3.90;;
66923;SDS011;53835;47.984;7.844;2022-09-21T08:24:32;9.13;;;4.20;;
66923;SDS011;53835;47.984;7.844;2022-09-21T08:27:00;7.23;;;3.70;;
66923;SDS011;53835;47.984;7.844;2022-09-21T08:29:28;7.00;;;4.00;;
66923;SDS011;53835;47.984;7.844;2022-09-21T08:31:55;9.13;;;4.10;;
66923;SDS011;53835;47.984;7.844;2022-09-21T08:34:23;6.60;;;4.10;;
66923;SDS011;53835;47.984;7.844;2022-09-21T08:36:51;4.87;;;3.93;;
66923;SDS011;53835;47.984;7.844;2022-09-21T08:39:18;8.00;;;4.63;;
66923;SDS011;53835;47.984;7.844;2022-09-21T08:44:26;6.37;;;4.77;;
66923;SDS011;53835;47.984;7.844;2022-09-21T08:46:54;7.83;;;4.17;;
66923;SDS011;53835;47.984;7.844;2022-09-21T08:49:19;8.57;;;4.37;;
66923;SDS011;53835;47.984;7.844;2022-09-21T08:51:58;9.60;;;3.60;;
66923;SDS011;53835;47.984;7.844;2022-09-21T08:57:01;7.13;;;4.60;;
66923;SDS011;53835;47.984;7.844;2022-09-21T08:59:28;4.87;;;4.37;;
66923;SDS011;53835;47.984;7.844;2022-09-21T09:04:33;11.47;;;5.77;;
66923;SDS011;53835;47.984;7.844;2022-09-21T09:07:08;9.00;;;5.03;;
66923;SDS011;53835;47.984;7.844;2022-09-21T09:19:59;7.13;;;3.23;;
66923;SDS011;53835;47.984;7.844;2022-09-21T09:22:31;4.70;;;3.80;;
66923;SDS011;53835;47.984;7.844;2022-09-21T09:24:59;7.30;;;3.90;;
66923;SDS011;53835;47.984;7.844;2022-09-21T09:27:27;6.97;;;3.80;;
66923;SDS011;53835;47.984;7.844;2022-09-21T09:32:50;5.67;;;3.43;;
66923;SDS011;53835;47.984;7.844;2022-09-21T09:35:26;7.73;;;3.43;;
66923;SDS011;53835;47.984;7.844;2022-09-21T09:37:55;4.47;;;3.27;;
66923;SDS011;53835;47.984;7.844;2022-09-21T09:40:27;4.53;;;3.20;;
66923;SDS011;53835;47.984;7.844;2022-09-21T09:43:01;8.90;;;3.20;;
66923;SDS011;53835;47.984;7.844;2022-09-21T09:50:28;6.43;;;2.93;;
66923;SDS011;53835;47.984;7.844;2022-09-21T09:53:10;4.37;;;2.90;;
66923;SDS011;53835;47.984;7.844;2022-09-21T09:55:35;2.97;;;2.77;;
66923;SDS011;53835;47.984;7.844;2022-09-21T09:58:03;4.27;;;2.90;;
66923;SDS011;53835;47.984;7.844;2022-09-21T10:00:31;5.73;;;2.73;;
66923;SDS011;53835;47.984;7.844;2022-09-21T10:02:59;4.23;;;2.57;;
66923;SDS011;53835;47.984;7.844;2022-09-21T10:05:35;6.13;;;2.80;;
66923;SDS011;53835;47.984;7.844;2022-09-21T10:08:25;4.53;;;3.00;;
66923;SDS011;53835;47.984;7.844;2022-09-21T10:10:36;7.13;;;3.10;;
66923;SDS011;53835;47.984;7.844;2022-09-21T10:13:10;4.73;;;2.80;;
66923;SDS011;53835;47.984;7.844;2022-09-21T10:15:42;4.90;;;2.80;;
66923;SDS011;53835;47.984;7.844;2022-09-21T10:20:52;3.77;;;2.30;;
66923;SDS011;53835;47.984;7.844;2022-09-21T10:23:20;6.70;;;2.40;;
66923;SDS011;53835;47.984;7.844;2022-09-21T10:25:54;3.50;;;2.40;;
66923;SDS011;53835;47.984;7.844;2022-09-21T10:28:22;4.13;;;2.30;;
66923;SDS011;53835;47.984;7.844;2022-09-21T10:30:50;5.00;;;2.37;;
66923;SDS011;53835;47.984;7.844;2022-09-21T10:33:19;3.23;;;2.00;;
66923;SDS011;53835;47.984;7.844;2022-09-21T10:35:52;5.70;;;2.70;;
66923;SDS011;53835;47.984;7.844;2022-09-21T10:38:17;2.47;;;1.80;;
66923;SDS011;53835;47.984;7.844;2022-09-21T10:40:44;2.95;;;1.70;;
66923;SDS011;53835;47.984;7.844;2022-09-21T10:43:22;2.58;;;1.50;;
66923;SDS011;53835;47.984;7.844;2022-09-21T10:45:51;2.25;;;1.72;;
66923;SDS011;53835;47.984;7.844;2022-09-21T10:48:20;2.42;;;1.60;;
66923;SDS011;53835;47.984;7.844;2022-09-21T10:50:48;2.95;;;1.85;;
66923;SDS011;53835;47.984;7.844;2022-09-21T10:53:26;3.95;;;1.50;;
66923;SDS011;53835;47.984;7.844;2022-09-21T11:01:29;2.47;;;1.22;;
66923;SDS011;53835;47.984;7.844;2022-09-21T11:04:02;3.52;;;1.60;;
66923;SDS011;53835;47.984;7.844;2022-09-21T11:06:30;2.55;;;1.60;;
66923;SDS011;53835;47.984;7.844;2022-09-21T11:09:13;3.02;;;1.25;;
66923;SDS011;53835;47.984;7.844;2022-09-21T11:14:21;2.75;;;1.20;;
66923;SDS011;53835;47.984;7.844;2022-09-21T11:17:02;4.00;;;1.47;;
66923;SDS011;53835;47.984;7.844;2022-09-21T11:22:00;2.33;;;1.50;;
66923;SDS011;53835;47.984;7.844;2022-09-21T11:24:35;1.92;;;1.30;;
66923;SDS011;53835;47.984;7.844;2022-09-21T11:27:17;4.10;;;1.10;;
66923;SDS011;53835;47.984;7.844;2022-09-21T11:35:07;1.67;;;1.35;;
66923;SDS011;53835;47.984;7.844;2022-09-21T11:42:55;4.05;;;1.42;;
66923;SDS011;53835;47.984;7.844;2022-09-21T11:45:36;3.17;;;1.40;;
66923;SDS011;53835;47.984;7.844;2022-09-21T11:48:10;1.65;;;1.22;;
66923;SDS011;53835;47.984;7.844;2022-09-21T11:53:40;2.45;;;1.22;;
66923;SDS011;53835;47.984;7.844;2022-09-21T12:06:31;1.80;;;1.37;;
66923;SDS011;53835;47.984;7.844;2022-09-21T12:11:25;2.30;;;1.55;;
66923;SDS011;53835;47.984;7.844;2022-09-21T12:21:24;2.12;;;1.30;;
66923;SDS011;53835;47.984;7.844;2022-09-21T12:26:39;2.27;;;1.30;;
66923;SDS011;53835;47.984;7.844;2022-09-21T12:29:12;1.50;;;1.20;;
66923;SDS011;53835;47.984;7.844;2022-09-21T12:34:16;2.60;;;1.60;;
66923;SDS011;53835;47.984;7.844;2022-09-21T12:37:07;1.47;;;1.25;;
66923;SDS011;53835;47.984;7.844;2022-09-21T12:39:33;1.77;;;1.22;;
66923;SDS011;53835;47.984;7.844;2022-09-21T12:44:30;1.50;;;1.20;;
66923;SDS011;53835;47.984;7.844;2022-09-21T12:47:06;2.75;;;1.12;;
66923;SDS011;53835;47.984;7.844;2022-09-21T12:49:43;1.80;;;1.10;;
66923;SDS011;53835;47.984;7.844;2022-09-21T12:52:14;1.10;;;1.00;;
66923;SDS011;53835;47.984;7.844;2022-09-21T12:57:29;2.25;;;1.05;;
66923;SDS011;53835;47.984;7.844;2022-09-21T13:02:28;1.27;;;1.10;;
66923;SDS011;53835;47.984;7.844;2022-09-21T13:07:44;2.22;;;1.07;;
66923;SDS011;53835;47.984;7.844;2022-09-21T13:10:21;3.50;;;1.35;;
66923;SDS011;53835;47.984;7.844;2022-09-21T13:12:50;1.80;;;1.10;;
66923;SDS011;53835;47.984;7.844;2022-09-21T13:15:23;1.00;;;0.90;;
66923;SDS011;53835;47.984;7.844;2022-09-21T13:17:52;2.30;;;1.40;;
66923;SDS011;53835;47.984;7.844;2022-09-21T13:20:20;2.90;;;1.00;;
66923;SDS011;53835;47.984;7.844;2022-09-21T13:22:44;2.37;;;1.30;;
66923;SDS011;53835;47.984;7.844;2022-09-21T13:27:59;3.45;;;1.50;;
66923;SDS011;53835;47.984;7.844;2022-09-21T13:30:28;3.70;;;1.57;;
66923;SDS011;53835;47.984;7.844;2022-09-21T13:32:58;1.72;;;1.00;;
66923;SDS011;53835;47.984;7.844;2022-09-21T13:49:00;1.27;;;1.10;;
66923;SDS011;53835;47.984;7.844;2022-09-21T13:51:31;1.00;;;0.90;;
66923;SDS011;53835;47.984;7.844;2022-09-21T13:53:58;1.50;;;1.10;;
66923;SDS011;53835;47.984;7.844;2022-09-21T13:56:27;1.77;;;1.00;;
66923;SDS011;53835;47.984;7.844;2022-09-21T13:58:55;1.35;;;1.00;;
66923;SDS011;53835;47.984;7.844;2022-09-21T14:01:24;2.05;;;1.10;;
66923;SDS011;53835;47.984;7.844;2022-09-21T14:04:03;5.60;;;1.40;;
66923;SDS011;53835;47.984;7.844;2022-09-21T14:06:32;3.05;;;1.10;;
66923;SDS011;53835;47.984;7.844;2022-09-21T14:09:02;2.45;;;1.20;;
66923;SDS011;53835;47.984;7.844;2022-09-21T14:11:33;1.47;;;0.95;;
66923;SDS011;53835;47.984;7.844;2022-09-21T14:14:05;2.98;;;0.82;;
66923;SDS011;53835;47.984;7.844;2022-09-21T14:24:38;2.92;;;1.50;;
66923;SDS011;53835;47.984;7.844;2022-09-21T14:29:52;2.77;;;1.10;;
66923;SDS011;53835;47.984;7.844;2022-09-21T14:32:25;1.12;;;1.02;;
66923;SDS011;53835;47.984;7.844;2022-09-21T14:34:51;2.85;;;1.30;;
66923;SDS011;53835;47.984;7.844;2022-09-21T14:37:31;1.87;;;1.30;;
66923;SDS011;53835;47.984;7.844;2022-09-21T14:39:59;6.60;;;1.30;;
66923;SDS011;53835;47.984;7.844;2022-09-21T14:42:28;1.80;;;1.20;;
66923;SDS011;53835;47.984;7.844;2022-09-21T14:45:00;1.42;;;1.05;;
66923;SDS011;53835;47.984;7.844;2022-09-21T14:47:35;1.47;;;0.85;;
66923;SDS011;53835;47.984;7.844;2022-09-21T14:52:41;2.00;;;1.07;;
66923;SDS011;53835;47.984;7.844;2022-09-21T14:55:13;1.50;;;1.17;;
66923;SDS011;53835;47.984;7.844;2022-09-21T15:00:17;1.30;;;1.20;;
66923;SDS011;53835;47.984;7.844;2022-09-21T15:05:47;1.42;;;0.88;;
66923;SDS011;53835;47.984;7.844;2022-09-21T15:14:04;1.10;;;0.90;;
66923;SDS011;53835;47.984;7.844;2022-09-21T15:16:37;2.77;;;1.50;;
66923;SDS011;53835;47.984;7.844;2022-09-21T15:19:10;1.30;;;1.07;;
66923;SDS011;53835;47.984;7.844;2022-09-21T15:21:44;1.70;;;1.20;;
66923;SDS011;53835;47.984;7.844;2022-09-21T15:24:16;1.62;;;1.30;;
66923;SDS011;53835;47.984;7.844;2022-09-21T15:26:40;2.05;;;0.72;;
66923;SDS011;53835;47.984;7.844;2022-09-21T15:29:11;1.45;;;1.12;;
66923;SDS011;53835;47.984;7.844;2022-09-21T15:31:38;2.17;;;1.02;;
66923;SDS011;53835;47.984;7.844;2022-09-21T15:34:06;1.20;;;0.90;;
66923;SDS011;53835;47.984;7.844;2022-09-21T15:36:37;1.95;;;0.98;;
66923;SDS011;53835;47.984;7.844;2022-09-21T15:39:04;1.00;;;0.90;;
66923;SDS011;53835;47.984;7.844;2022-09-21T15:41:36;2.95;;;1.25;;
66923;SDS011;53835;47.984;7.844;2022-09-21T15:44:15;1.12;;;0.95;;
66923;SDS011;53835;47.984;7.844;2022-09-21T15:46:43;2.58;;;1.30;;
66923;SDS011;53835;47.984;7.844;2022-09-21T15:49:15;1.92;;;1.00;;
66923;SDS011;53835;47.984;7.844;2022-09-21T15:51:44;1.10;;;1.00;;
66923;SDS011;53835;47.984;7.844;2022-09-21T15:54:15;1.32;;;1.10;;
66923;SDS011;53835;47.984;7.844;2022-09-21T15:56:41;1.85;;;1.20;;
66923;SDS011;53835;47.984;7.844;2022-09-21T15:59:11;1.02;;;0.93;;
66923;SDS011;53835;47.984;7.844;2022-09-21T16:01:39;3.80;;;1.02;;
66923;SDS011;53835;47.984;7.844;2022-09-21T16:04:16;1.20;;;1.10;;
66923;SDS011;53835;47.984;7.844;2022-09-21T16:06:46;1.65;;;1.10;;
66923;SDS011;53835;47.984;7.844;2022-09-21T16:11:57;2.47;;;1.05;;
66923;SDS011;53835;47.984;7.844;2022-09-21T16:14:24;2.90;;;1.20;;
66923;SDS011;53835;47.984;7.844;2022-09-21T16:19:41;2.75;;;1.20;;
66923;SDS011;53835;47.984;7.844;2022-09-21T16:22:12;1.60;;;1.40;;
66923;SDS011;53835;47.984;7.844;2022-09-21T16:24:50;3.35;;;1.50;;
66923;SDS011;53835;47.984;7.844;2022-09-21T16:27:18;2.17;;;1.60;;
66923;SDS011;53835;47.984;7.844;2022-09-21T16:29:46;1.87;;;1.10;;
66923;SDS011;53835;47.984;7.844;2022-09-21T16:34:49;2.02;;;1.15;;
66923;SDS011;53835;47.984;7.844;2022-09-21T16:39:50;1.70;;;1.12;;
66923;SDS011;53835;47.984;7.844;2022-09-21T16:42:19;3.40;;;1.40;;
66923;SDS011;53835;47.984;7.844;2022-09-21T16:44:47;1.37;;;1.05;;
66923;SDS011;53835;47.984;7.844;2022-09-21T16:47:21;2.67;;;1.30;;
66923;SDS011;53835;47.984;7.844;2022-09-21T16:49:50;3.17;;;1.30;;
66923;SDS011;53835;47.984;7.844;2022-09-21T16:52:20;1.35;;;1.25;;
66923;SDS011;53835;47.984;7.844;2022-09-21T16:54:48;3.85;;;1.42;;
66923;SDS011;53835;47.984;7.844;2022-09-21T16:57:16;3.50;;;1.27;;
66923;SDS011;53835;47.984;7.844;2022-09-21T16:59:43;2.90;;;0.93;;
66923;SDS011;53835;47.984;7.844;2022-09-21T17:02:11;2.17;;;1.30;;
66923;SDS011;53835;47.984;7.844;2022-09-21T17:04:39;4.10;;;1.60;;
66923;SDS011;53835;47.984;7.844;2022-09-21T17:07:09;1.63;;;1.20;;
66923;SDS011;53835;47.984;7.844;2022-09-21T17:09:36;2.17;;;1.40;;
66923;SDS011;53835;47.984;7.844;2022-09-21T17:12:07;4.17;;;3.03;;
66923;SDS011;53835;47.984;7.844;2022-09-21T17:14:36;2.65;;;1.32;;
66923;SDS011;53835;47.984;7.844;2022-09-21T17:17:10;1.57;;;1.25;;
66923;SDS011;53835;47.984;7.844;2022-09-21T17:19:33;1.15;;;1.05;;
66923;SDS011;53835;47.984;7.844;2022-09-21T17:22:02;1.47;;;1.37;;
66923;SDS011;53835;47.984;7.844;2022-09-21T17:24:29;2.63;;;1.70;;
66923;SDS011;53835;47.984;7.844;2022-09-21T17:26:56;3.00;;;1.30;;
66923;SDS011;53835;47.984;7.844;2022-09-21T17:29:24;1.93;;;1.60;;
66923;SDS011;53835;47.984;7.844;2022-09-21T17:31:56;2.73;;;1.30;;
66923;SDS011;53835;47.984;7.844;2022-09-21T17:34:25;1.17;;;1.07;;
66923;SDS011;53835;47.984;7.844;2022-09-21T17:36:53;2.63;;;1.67;;
66923;SDS011;53835;47.984;7.844;2022-09-21T17:39:21;2.47;;;1.80;;
66923;SDS011;53835;47.984;7.844;2022-09-21T17:41:52;1.57;;;1.47;;
66923;SDS011;53835;47.984;7.844;2022-09-21T17:44:26;1.50;;;1.40;;
66923;SDS011;53835;47.984;7.844;2022-09-21T17:46:53;2.90;;;1.67;;